AMQ512 EPKT-LGZA
Flight info
| Callsign | AMQ512 |
|---|---|
| Flight time | 1h 49m |
| Altitude | 33000 |
| Route | BABKO M866 NIDOK DCT PARAK DCT TISAK DCT BGD DCT NANER DCT REDVA UL616 KOGAT DCT GOSTI DCT BITLA UN731 YNN UT352 ASTUS |
| Aircraft | A321/M-SDE3FGHIRWY/LB1 |
Departure
| Time | 2026-05-04 09:04 |
|---|---|
| Airport | Katowice Wojciech Korfanty International Airport (EPKT) |
Arrival
| Time | 2026-05-04 10:54 |
|---|---|
| Airport | Zakynthos International Airport Dionysios Solomos (LGZA) |
| Time | Latitude | Longitude | Altitude | Speed | Heading |
|---|---|---|---|---|---|
| 2026-05-04 08:33 | 50.47174 | 19.07225 | 988 ft | 0 kts | 180° |
| 2026-05-04 08:51 | 50.47182 | 19.07225 | 988 ft | 2 kts | 180° |
| 2026-05-04 08:51 | 50.47194 | 19.07225 | 989 ft | 0 kts | 180° |
| 2026-05-04 08:52 | 50.47207 | 19.07224 | 988 ft | 2 kts | 163° |
| 2026-05-04 08:52 | 50.47220 | 19.07214 | 988 ft | 2 kts | 142° |
| 2026-05-04 08:52 | 50.47230 | 19.07197 | 988 ft | 2 kts | 122° |
| 2026-05-04 08:52 | 50.47236 | 19.07176 | 988 ft | 2 kts | 101° |
| 2026-05-04 08:53 | 50.47237 | 19.07162 | 988 ft | 1 kts | 88° |
| 2026-05-04 08:54 | 50.47237 | 19.07154 | 988 ft | 0 kts | 89° |
| 2026-05-04 08:57 | 50.47236 | 19.07486 | 991 ft | 11 kts | 90° |
| 2026-05-04 09:01 | 50.47234 | 19.09950 | 1010 ft | 12 kts | 90° |
| 2026-05-04 09:01 | 50.47254 | 19.10070 | 1012 ft | 11 kts | 55° |
| 2026-05-04 09:01 | 50.47305 | 19.10176 | 1013 ft | 12 kts | 52° |
| 2026-05-04 09:01 | 50.47356 | 19.10278 | 1014 ft | 11 kts | 52° |
| 2026-05-04 09:02 | 50.47406 | 19.10379 | 1015 ft | 11 kts | 52° |
| 2026-05-04 09:02 | 50.47459 | 19.10466 | 1015 ft | 10 kts | 27° |
| 2026-05-04 09:02 | 50.47535 | 19.10478 | 1015 ft | 11 kts | 357° |
| 2026-05-04 09:02 | 50.47595 | 19.10410 | 1015 ft | 11 kts | 288° |
| 2026-05-04 09:03 | 50.47599 | 19.10366 | 1014 ft | 12 kts | 274° |
| 2026-05-04 09:03 | 50.47600 | 19.10324 | 1014 ft | 0 kts | 270° |
| 2026-05-04 09:03 | 50.47600 | 19.10299 | 1014 ft | 16 kts | 270° |
| 2026-05-04 09:03 | 50.47597 | 19.09687 | 1007 ft | 93 kts | 269° |
| 2026-05-04 09:04 | 50.47601 | 19.08853 | 1000 ft | 135 kts | 270° |
| 2026-05-04 09:04 | 50.47607 | 19.06437 | 1281 ft | 180 kts | 266° |
| 2026-05-04 09:04 | 50.47607 | 19.04465 | 1928 ft | 184 kts | 267° |
| 2026-05-04 09:04 | 50.47607 | 19.02494 | 2693 ft | 182 kts | 266° |
| 2026-05-04 09:05 | 50.47609 | 19.00498 | 3212 ft | 189 kts | 266° |
| 2026-05-04 09:05 | 50.47592 | 18.98334 | 3537 ft | 205 kts | 261° |
| 2026-05-04 09:05 | 50.47109 | 18.96223 | 3797 ft | 217 kts | 229° |
| 2026-05-04 09:05 | 50.45831 | 18.94854 | 4087 ft | 235 kts | 193° |
| 2026-05-04 09:06 | 50.44146 | 18.94630 | 4525 ft | 250 kts | 182° |
| 2026-05-04 09:07 | 50.31316 | 18.93585 | 9370 ft | 274 kts | 184° |
| 2026-05-04 09:08 | 50.29408 | 18.93427 | 10010 ft | 277 kts | 184° |
| 2026-05-04 09:08 | 50.27443 | 18.93266 | 10538 ft | 285 kts | 184° |
| 2026-05-04 09:08 | 50.25405 | 18.93098 | 10822 ft | 301 kts | 184° |
| 2026-05-04 09:08 | 50.23285 | 18.92922 | 11096 ft | 317 kts | 184° |
| 2026-05-04 09:09 | 50.21005 | 18.92734 | 11366 ft | 332 kts | 184° |
| 2026-05-04 09:09 | 50.18632 | 18.92540 | 11689 ft | 344 kts | 184° |
| 2026-05-04 09:09 | 50.16237 | 18.92345 | 12214 ft | 348 kts | 184° |
| 2026-05-04 09:09 | 50.13795 | 18.92148 | 12805 ft | 351 kts | 184° |
| 2026-05-04 09:10 | 50.11345 | 18.91950 | 13370 ft | 354 kts | 184° |
| 2026-05-04 09:10 | 50.08880 | 18.91750 | 13913 ft | 358 kts | 184° |
| 2026-05-04 09:10 | 50.06410 | 18.91549 | 14444 ft | 361 kts | 184° |
| 2026-05-04 09:10 | 50.03863 | 18.91342 | 14976 ft | 364 kts | 184° |
| 2026-05-04 09:11 | 50.01327 | 18.91136 | 15489 ft | 367 kts | 185° |
| 2026-05-04 09:11 | 49.98775 | 18.90927 | 15987 ft | 370 kts | 184° |
| 2026-05-04 09:11 | 49.96191 | 18.90713 | 16432 ft | 375 kts | 184° |
| 2026-05-04 09:11 | 49.93590 | 18.90504 | 16895 ft | 378 kts | 184° |
| 2026-05-04 09:12 | 49.90939 | 18.90291 | 17373 ft | 381 kts | 184° |
| 2026-05-04 09:12 | 49.88317 | 18.90080 | 17830 ft | 384 kts | 184° |
| 2026-05-04 09:14 | 49.69216 | 18.88545 | 20794 ft | 404 kts | 184° |
| 2026-05-04 09:14 | 49.66434 | 18.88322 | 21176 ft | 406 kts | 184° |
| 2026-05-04 09:14 | 49.63589 | 18.88094 | 21558 ft | 409 kts | 184° |
| 2026-05-04 09:14 | 49.60759 | 18.87868 | 21935 ft | 412 kts | 184° |
| 2026-05-04 09:15 | 49.57913 | 18.87641 | 22304 ft | 415 kts | 184° |
| 2026-05-04 09:15 | 49.55003 | 18.87410 | 22661 ft | 418 kts | 184° |
| 2026-05-04 09:15 | 49.52126 | 18.87181 | 23010 ft | 420 kts | 184° |
| 2026-05-04 09:15 | 49.49189 | 18.86947 | 23362 ft | 423 kts | 184° |
| 2026-05-04 09:17 | 49.25236 | 18.85050 | 25929 ft | 442 kts | 184° |
| 2026-05-04 09:18 | 49.22145 | 18.84808 | 26218 ft | 444 kts | 184° |
| 2026-05-04 09:18 | 49.19075 | 18.84566 | 26510 ft | 447 kts | 184° |
| 2026-05-04 09:18 | 49.15965 | 18.84322 | 26797 ft | 449 kts | 184° |
| 2026-05-04 09:18 | 49.12877 | 18.84080 | 27075 ft | 451 kts | 184° |
| 2026-05-04 09:19 | 49.09730 | 18.83833 | 27349 ft | 453 kts | 184° |
| 2026-05-04 09:19 | 49.06598 | 18.83588 | 27599 ft | 455 kts | 184° |
| 2026-05-04 09:19 | 49.03446 | 18.83342 | 27855 ft | 457 kts | 183° |
| 2026-05-04 09:19 | 49.00254 | 18.83093 | 28115 ft | 459 kts | 183° |
| 2026-05-04 09:20 | 48.97070 | 18.82845 | 28364 ft | 461 kts | 183° |
| 2026-05-04 09:20 | 48.93863 | 18.82595 | 28673 ft | 461 kts | 183° |
| 2026-05-04 09:20 | 48.90699 | 18.82501 | 29024 ft | 460 kts | 179° |
| 2026-05-04 09:20 | 48.87534 | 18.82856 | 29372 ft | 459 kts | 173° |
| 2026-05-04 09:21 | 48.84385 | 18.83692 | 29690 ft | 459 kts | 167° |
| 2026-05-04 09:21 | 48.81318 | 18.84984 | 29970 ft | 459 kts | 162° |
| 2026-05-04 09:21 | 48.78282 | 18.86474 | 30278 ft | 459 kts | 161° |
| 2026-05-04 09:21 | 48.75279 | 18.87983 | 30595 ft | 458 kts | 161° |
| 2026-05-04 09:22 | 48.72265 | 18.89497 | 30893 ft | 458 kts | 161° |
| 2026-05-04 09:22 | 48.69260 | 18.90996 | 31185 ft | 458 kts | 161° |
| 2026-05-04 09:22 | 48.66249 | 18.92491 | 31466 ft | 457 kts | 161° |
| 2026-05-04 09:22 | 48.63227 | 18.93984 | 31691 ft | 459 kts | 161° |
| 2026-05-04 09:23 | 48.60169 | 18.95488 | 31932 ft | 459 kts | 161° |
| 2026-05-04 09:23 | 48.57097 | 18.96994 | 32207 ft | 459 kts | 161° |
| 2026-05-04 09:23 | 48.54076 | 18.98474 | 32391 ft | 461 kts | 161° |
| 2026-05-04 09:23 | 48.51023 | 18.99969 | 32554 ft | 463 kts | 161° |
| 2026-05-04 09:25 | 48.29524 | 19.10438 | 33007 ft | 468 kts | 161° |
| 2026-05-04 09:25 | 48.26434 | 19.11934 | 33007 ft | 468 kts | 161° |
| 2026-05-04 09:26 | 48.20268 | 19.14915 | 33007 ft | 468 kts | 161° |
| 2026-05-04 09:26 | 48.14065 | 19.17905 | 33007 ft | 468 kts | 161° |
| 2026-05-04 09:27 | 48.07872 | 19.20883 | 33007 ft | 468 kts | 161° |
| 2026-05-04 09:27 | 48.01700 | 19.23858 | 33007 ft | 467 kts | 162° |
| 2026-05-04 09:28 | 47.95508 | 19.26811 | 33006 ft | 474 kts | 162° |
| 2026-05-04 09:28 | 47.89232 | 19.29803 | 33006 ft | 475 kts | 162° |
| 2026-05-04 09:29 | 47.82940 | 19.32798 | 33007 ft | 476 kts | 162° |
| 2026-05-04 09:29 | 47.76631 | 19.35794 | 33007 ft | 475 kts | 162° |
| 2026-05-04 09:30 | 47.70364 | 19.38762 | 33007 ft | 475 kts | 162° |
| 2026-05-04 09:30 | 47.64104 | 19.41720 | 33007 ft | 475 kts | 162° |
| 2026-05-04 09:31 | 47.57793 | 19.44694 | 33007 ft | 475 kts | 162° |
| 2026-05-04 09:31 | 47.51535 | 19.47636 | 33007 ft | 475 kts | 162° |
| 2026-05-04 09:32 | 47.45242 | 19.50586 | 33007 ft | 476 kts | 161° |
| 2026-05-04 09:34 | 47.20029 | 19.62334 | 33007 ft | 477 kts | 161° |
| 2026-05-04 09:34 | 47.13731 | 19.65250 | 33007 ft | 477 kts | 162° |
| 2026-05-04 09:35 | 47.07422 | 19.68164 | 33007 ft | 477 kts | 162° |
| 2026-05-04 09:35 | 47.01089 | 19.71082 | 33006 ft | 478 kts | 162° |
| 2026-05-04 09:37 | 46.75749 | 19.82684 | 33022 ft | 480 kts | 162° |
| 2026-05-04 09:38 | 46.69380 | 19.85582 | 33089 ft | 481 kts | 162° |
| 2026-05-04 09:38 | 46.62993 | 19.88481 | 33132 ft | 481 kts | 162° |
| 2026-05-04 09:39 | 46.56630 | 19.91362 | 33150 ft | 481 kts | 162° |
| 2026-05-04 09:39 | 46.50265 | 19.94238 | 33158 ft | 481 kts | 162° |
| 2026-05-04 09:40 | 46.43917 | 19.97097 | 33160 ft | 482 kts | 162° |
| 2026-05-04 09:40 | 46.37542 | 19.99963 | 33162 ft | 482 kts | 162° |
| 2026-05-04 09:42 | 46.11847 | 20.10605 | 33162 ft | 483 kts | 169° |
| 2026-05-04 09:43 | 46.05206 | 20.12278 | 33162 ft | 483 kts | 169° |
| 2026-05-04 09:43 | 45.98631 | 20.13932 | 33165 ft | 483 kts | 169° |
| 2026-05-04 09:44 | 45.92017 | 20.15599 | 33173 ft | 483 kts | 169° |
| 2026-05-04 09:46 | 45.65617 | 20.22227 | 33188 ft | 484 kts | 169° |
| 2026-05-04 09:46 | 45.59018 | 20.23875 | 33188 ft | 484 kts | 169° |
| 2026-05-04 09:47 | 45.52445 | 20.25513 | 33188 ft | 484 kts | 169° |
| 2026-05-04 09:49 | 45.25978 | 20.32066 | 33188 ft | 485 kts | 169° |
| 2026-05-04 09:51 | 45.02716 | 20.37775 | 33188 ft | 486 kts | 169° |
| 2026-05-04 09:51 | 44.96067 | 20.39399 | 33188 ft | 487 kts | 169° |
| 2026-05-04 09:52 | 44.89444 | 20.41011 | 33187 ft | 487 kts | 169° |
| 2026-05-04 09:52 | 44.82743 | 20.42639 | 33188 ft | 487 kts | 169° |
| 2026-05-04 09:53 | 44.76072 | 20.44257 | 33188 ft | 488 kts | 169° |
| 2026-05-04 09:53 | 44.69407 | 20.45867 | 33188 ft | 488 kts | 169° |
| 2026-05-04 09:54 | 44.62738 | 20.47477 | 33188 ft | 489 kts | 169° |
| 2026-05-04 09:54 | 44.56068 | 20.49083 | 33188 ft | 489 kts | 169° |
| 2026-05-04 09:55 | 44.49381 | 20.50688 | 33188 ft | 489 kts | 169° |
| 2026-05-04 09:55 | 44.42688 | 20.52292 | 33188 ft | 490 kts | 169° |
| 2026-05-04 09:56 | 44.36010 | 20.53888 | 33188 ft | 490 kts | 169° |
| 2026-05-04 09:56 | 44.29311 | 20.55486 | 33188 ft | 490 kts | 169° |
| 2026-05-04 09:57 | 44.22591 | 20.57084 | 33178 ft | 489 kts | 169° |
| 2026-05-04 09:57 | 44.15971 | 20.58653 | 33108 ft | 480 kts | 169° |
| 2026-05-04 09:58 | 44.09443 | 20.60198 | 33138 ft | 480 kts | 169° |
| 2026-05-04 09:58 | 44.02854 | 20.61755 | 33167 ft | 479 kts | 169° |
| 2026-05-04 10:00 | 43.76302 | 20.67995 | 33188 ft | 488 kts | 170° |
| 2026-05-04 10:04 | 43.29385 | 20.78882 | 33188 ft | 491 kts | 170° |
| 2026-05-04 10:04 | 43.22652 | 20.80430 | 33188 ft | 492 kts | 170° |
| 2026-05-04 10:05 | 43.15918 | 20.81977 | 33189 ft | 492 kts | 170° |
| 2026-05-04 10:05 | 43.09163 | 20.83523 | 33193 ft | 493 kts | 170° |
| 2026-05-04 10:06 | 43.02423 | 20.85063 | 33202 ft | 493 kts | 170° |
| 2026-05-04 10:06 | 42.95673 | 20.86601 | 33209 ft | 494 kts | 170° |
| 2026-05-04 10:08 | 42.71956 | 20.91981 | 33212 ft | 496 kts | 170° |
| 2026-05-04 10:08 | 42.65187 | 20.93508 | 33201 ft | 497 kts | 170° |
| 2026-05-04 10:09 | 42.58374 | 20.95042 | 33194 ft | 497 kts | 170° |
| 2026-05-04 10:09 | 42.51582 | 20.96568 | 33191 ft | 498 kts | 170° |
| 2026-05-04 10:10 | 42.44762 | 20.98097 | 33190 ft | 498 kts | 170° |
| 2026-05-04 10:10 | 42.37947 | 20.99622 | 33190 ft | 499 kts | 170° |
| 2026-05-04 10:11 | 42.31133 | 21.01143 | 33190 ft | 499 kts | 170° |
| 2026-05-04 10:11 | 42.24301 | 21.02664 | 33191 ft | 503 kts | 170° |
| 2026-05-04 10:12 | 42.17392 | 21.04126 | 33190 ft | 505 kts | 173° |
| 2026-05-04 10:12 | 42.10402 | 21.04706 | 33190 ft | 505 kts | 181° |
| 2026-05-04 10:13 | 42.03415 | 21.04080 | 33190 ft | 504 kts | 189° |
| 2026-05-04 10:13 | 41.96492 | 21.02689 | 33186 ft | 505 kts | 191° |
| 2026-05-04 10:14 | 41.89586 | 21.01277 | 33180 ft | 506 kts | 191° |
| 2026-05-04 10:16 | 41.62050 | 20.94101 | 33182 ft | 503 kts | 194° |
| 2026-05-04 10:16 | 41.55201 | 20.92289 | 33186 ft | 503 kts | 194° |
| 2026-05-04 10:17 | 41.48339 | 20.90480 | 33188 ft | 503 kts | 194° |
| 2026-05-04 10:19 | 41.20943 | 20.83298 | 33188 ft | 502 kts | 194° |
| 2026-05-04 10:19 | 41.14102 | 20.81516 | 33188 ft | 502 kts | 194° |
| 2026-05-04 10:20 | 41.07251 | 20.79732 | 33188 ft | 502 kts | 194° |
| 2026-05-04 10:20 | 41.00421 | 20.77959 | 33188 ft | 502 kts | 194° |
| 2026-05-04 10:21 | 40.93608 | 20.76194 | 33188 ft | 501 kts | 195° |
| 2026-05-04 10:21 | 40.86782 | 20.74430 | 33186 ft | 502 kts | 195° |
| 2026-05-04 10:22 | 40.76516 | 20.71783 | 33188 ft | 501 kts | 195° |
| 2026-05-04 10:23 | 40.69678 | 20.70024 | 33188 ft | 501 kts | 195° |
| 2026-05-04 10:25 | 40.42456 | 20.63060 | 33188 ft | 500 kts | 195° |
| 2026-05-04 10:25 | 40.35689 | 20.61337 | 33184 ft | 500 kts | 195° |
| 2026-05-04 10:26 | 40.28885 | 20.59609 | 33176 ft | 500 kts | 195° |
| 2026-05-04 10:26 | 40.22048 | 20.57876 | 33169 ft | 500 kts | 195° |
| 2026-05-04 10:27 | 40.15251 | 20.56156 | 33168 ft | 499 kts | 195° |
| 2026-05-04 10:27 | 40.08452 | 20.54439 | 33178 ft | 499 kts | 195° |
| 2026-05-04 10:28 | 40.01649 | 20.52726 | 33184 ft | 499 kts | 196° |
| 2026-05-04 10:28 | 39.94856 | 20.51021 | 33187 ft | 499 kts | 196° |
| 2026-05-04 10:29 | 39.88073 | 20.49318 | 33186 ft | 498 kts | 196° |
| 2026-05-04 10:29 | 39.81304 | 20.47621 | 33188 ft | 498 kts | 196° |
| 2026-05-04 10:30 | 39.74468 | 20.45912 | 33188 ft | 498 kts | 196° |
| 2026-05-04 10:30 | 39.67720 | 20.44229 | 33188 ft | 498 kts | 196° |
| 2026-05-04 10:31 | 39.60943 | 20.42542 | 33187 ft | 498 kts | 196° |
| 2026-05-04 10:32 | 39.37387 | 20.36695 | 30078 ft | 507 kts | 196° |
| 2026-05-04 10:33 | 39.33919 | 20.35837 | 29169 ft | 510 kts | 196° |
| 2026-05-04 10:33 | 39.30418 | 20.34972 | 28291 ft | 511 kts | 195° |
| 2026-05-04 10:33 | 39.26984 | 20.34126 | 27474 ft | 510 kts | 195° |
| 2026-05-04 10:33 | 39.23529 | 20.33279 | 26840 ft | 505 kts | 194° |
| 2026-05-04 10:34 | 39.20129 | 20.32447 | 26279 ft | 498 kts | 194° |
| 2026-05-04 10:34 | 39.16759 | 20.31623 | 25742 ft | 491 kts | 194° |
| 2026-05-04 10:34 | 39.13406 | 20.30804 | 25221 ft | 485 kts | 194° |
| 2026-05-04 10:34 | 39.10118 | 20.29999 | 24705 ft | 478 kts | 194° |
| 2026-05-04 10:35 | 39.06877 | 20.29205 | 24194 ft | 472 kts | 194° |
| 2026-05-04 10:35 | 39.03688 | 20.28425 | 23679 ft | 467 kts | 194° |
| 2026-05-04 10:35 | 39.00541 | 20.27656 | 23179 ft | 462 kts | 194° |
| 2026-05-04 10:35 | 38.97413 | 20.26892 | 22678 ft | 457 kts | 194° |
| 2026-05-04 10:36 | 38.94282 | 20.26127 | 22175 ft | 452 kts | 194° |
| 2026-05-04 10:36 | 38.91248 | 20.25387 | 21685 ft | 448 kts | 194° |
| 2026-05-04 10:36 | 38.88202 | 20.24645 | 21195 ft | 443 kts | 194° |
| 2026-05-04 10:36 | 38.85172 | 20.23907 | 20699 ft | 439 kts | 194° |
| 2026-05-04 10:37 | 38.82213 | 20.23187 | 20217 ft | 435 kts | 193° |
| 2026-05-04 10:37 | 38.79246 | 20.22549 | 19699 ft | 434 kts | 186° |
| 2026-05-04 10:37 | 38.76234 | 20.22901 | 19111 ft | 435 kts | 165° |
| 2026-05-04 10:37 | 38.73395 | 20.24120 | 18527 ft | 434 kts | 158° |
| 2026-05-04 10:39 | 38.56466 | 20.31840 | 14745 ft | 428 kts | 161° |
| 2026-05-04 10:39 | 38.53676 | 20.32998 | 14286 ft | 421 kts | 161° |
| 2026-05-04 10:39 | 38.50925 | 20.34136 | 13765 ft | 407 kts | 161° |
| 2026-05-04 10:40 | 38.48297 | 20.35222 | 13104 ft | 395 kts | 161° |
| 2026-05-04 10:40 | 38.45720 | 20.36286 | 12566 ft | 380 kts | 161° |
| 2026-05-04 10:40 | 38.43290 | 20.37289 | 12109 ft | 363 kts | 161° |
| 2026-05-04 10:40 | 38.40924 | 20.38265 | 11678 ft | 345 kts | 161° |
| 2026-05-04 10:41 | 38.39433 | 20.38881 | 11399 ft | 334 kts | 161° |
| 2026-05-04 10:41 | 38.36601 | 20.40051 | 10943 ft | 313 kts | 162° |
| 2026-05-04 10:41 | 38.34559 | 20.40893 | 10781 ft | 305 kts | 162° |
| 2026-05-04 10:41 | 38.32578 | 20.41709 | 10639 ft | 295 kts | 162° |
| 2026-05-04 10:42 | 38.30646 | 20.42503 | 10498 ft | 285 kts | 162° |
| 2026-05-04 10:42 | 38.28793 | 20.43265 | 10367 ft | 282 kts | 162° |
| 2026-05-04 10:42 | 38.26913 | 20.44038 | 10235 ft | 282 kts | 162° |
| 2026-05-04 10:42 | 38.25054 | 20.44802 | 9976 ft | 283 kts | 162° |
| 2026-05-04 10:43 | 38.23193 | 20.45567 | 9628 ft | 282 kts | 162° |
| 2026-05-04 10:44 | 38.10603 | 20.51409 | 7299 ft | 273 kts | 138° |
| 2026-05-04 10:45 | 38.09261 | 20.53112 | 6977 ft | 271 kts | 131° |
| 2026-05-04 10:45 | 38.08025 | 20.54893 | 6667 ft | 269 kts | 129° |
| 2026-05-04 10:45 | 38.06817 | 20.56658 | 6365 ft | 266 kts | 130° |
| 2026-05-04 10:45 | 38.05600 | 20.58417 | 6057 ft | 265 kts | 130° |
| 2026-05-04 10:46 | 38.04374 | 20.60166 | 5732 ft | 263 kts | 131° |
| 2026-05-04 10:46 | 38.03159 | 20.61885 | 5408 ft | 262 kts | 131° |
| 2026-05-04 10:46 | 38.01935 | 20.63607 | 5082 ft | 261 kts | 131° |
| 2026-05-04 10:46 | 38.00717 | 20.65315 | 4757 ft | 260 kts | 132° |
| 2026-05-04 10:47 | 37.99524 | 20.66986 | 4436 ft | 259 kts | 132° |
| 2026-05-04 10:47 | 37.98315 | 20.68676 | 4110 ft | 257 kts | 132° |
| 2026-05-04 10:47 | 37.97116 | 20.70352 | 3785 ft | 256 kts | 133° |
| 2026-05-04 10:47 | 37.95927 | 20.72013 | 3461 ft | 255 kts | 133° |
| 2026-05-04 10:49 | 37.88153 | 20.82834 | 2591 ft | 219 kts | 133° |
| 2026-05-04 10:49 | 37.87014 | 20.84089 | 2582 ft | 211 kts | 153° |
| 2026-05-04 10:50 | 37.85668 | 20.84713 | 2299 ft | 204 kts | 166° |
| 2026-05-04 10:51 | 37.77840 | 20.87329 | 440 ft | 138 kts | 161° |
| 2026-05-04 10:52 | 37.76929 | 20.87722 | 228 ft | 138 kts | 160° |
| 2026-05-04 10:52 | 37.76020 | 20.88073 | 103 ft | 138 kts | 162° |
| 2026-05-04 10:52 | 37.75111 | 20.88421 | 23 ft | 129 kts | 163° |
| 2026-05-04 10:54 | 37.74740 | 20.88565 | 23 ft | 21 kts | 343° |
| 2026-05-04 10:54 | 37.74884 | 20.88511 | 23 ft | 21 kts | 344° |
| 2026-05-04 10:56 | 37.75250 | 20.88567 | 23 ft | 0 kts | 73° |